Time;durP1;ratioP1;P1;durP2;ratioP2;P2;SDS_P1;SDS_P2;PMS_P1;PMS_P2;Temp;Humidity;BMP_temperature;BMP_pressure;BME280_temperature;BME280_humidity;BME280_pressure;Samples;Min_cycle;Max_cycle;Signal;HPM_P1;HPM_P2
2024/02/06 00:00:59;;;;;;;3.77;2.00;;;9.40;99.90;;;;;;4972993;28;20969;-70
2024/02/06 00:03:26;;;;;;;1.50;1.40;;;9.30;99.90;;;;;;4974432;28;20484;-70
2024/02/06 00:05:53;;;;;;;3.63;2.60;;;9.40;99.90;;;;;;4967523;28;22462;-71
2024/02/06 00:08:19;;;;;;;1.20;1.07;;;9.40;99.90;;;;;;4971269;28;20455;-71
2024/02/06 00:10:46;;;;;;;5.70;2.20;;;9.40;99.90;;;;;;4973029;28;20481;-71
2024/02/06 00:13:13;;;;;;;2.10;1.90;;;9.40;99.90;;;;;;4972325;28;20461;-71
2024/02/06 00:15:42;;;;;;;5.37;3.13;;;9.40;99.90;;;;;;4969654;28;20477;-71
2024/02/06 00:18:09;;;;;;;8.20;3.40;;;9.50;99.90;;;;;;4973334;28;20462;-71
2024/02/06 00:20:35;;;;;;;5.33;2.60;;;9.50;99.90;;;;;;4972224;28;20542;-70
2024/02/06 00:23:02;;;;;;;4.17;2.37;;;9.40;99.90;;;;;;4973147;28;20462;-71
2024/02/06 00:25:29;;;;;;;5.77;3.50;;;9.40;99.90;;;;;;4976550;28;20486;-71
2024/02/06 00:27:55;;;;;;;7.17;3.67;;;9.40;99.90;;;;;;4979726;28;20489;-70
2024/02/06 00:30:22;;;;;;;4.33;3.20;;;9.50;99.90;;;;;;4976370;28;20474;-71
2024/02/06 00:32:52;;;;;;;10.53;2.70;;;9.50;99.90;;;;;;4974177;28;20462;-70
2024/02/06 00:35:19;;;;;;;10.47;2.23;;;9.50;99.90;;;;;;4973145;28;20478;-71
2024/02/06 00:37:45;;;;;;;2.70;2.50;;;9.50;99.90;;;;;;4970815;28;20476;-70
2024/02/06 00:40:13;;;;;;;7.20;2.40;;;9.50;99.90;;;;;;4974812;28;20465;-70
2024/02/06 00:42:39;;;;;;;8.20;2.87;;;9.50;99.90;;;;;;4975646;28;20462;-70
2024/02/06 00:45:07;;;;;;;6.43;3.60;;;9.50;99.90;;;;;;4979372;28;20458;-70
2024/02/06 00:47:34;;;;;;;7.73;3.50;;;9.50;99.90;;;;;;4969411;28;20474;-70
2024/02/06 00:50:02;;;;;;;5.83;3.53;;;9.60;99.90;;;;;;4977314;28;20824;-70
2024/02/06 00:52:29;;;;;;;4.40;2.93;;;9.60;99.90;;;;;;4980317;28;20471;-70
2024/02/06 00:54:56;;;;;;;3.77;1.73;;;9.70;99.90;;;;;;4976868;28;20466;-70
2024/02/06 00:57:23;;;;;;;7.40;3.57;;;9.60;99.90;;;;;;4981611;28;20468;-71
2024/02/06 00:59:50;;;;;;;4.17;2.50;;;9.50;99.90;;;;;;4974722;28;20496;-70
2024/02/06 01:02:16;;;;;;;4.83;3.23;;;9.60;99.90;;;;;;4981337;28;20454;-71
2024/02/06 01:04:45;;;;;;;3.73;3.40;;;9.60;99.90;;;;;;4980278;28;20466;-70
2024/02/06 01:07:13;;;;;;;4.63;3.83;;;9.60;99.90;;;;;;4976812;28;20509;-71
2024/02/06 01:09:39;;;;;;;3.77;2.83;;;9.70;99.90;;;;;;4972878;28;20486;-70
2024/02/06 01:12:07;;;;;;;3.90;3.50;;;9.70;99.90;;;;;;4979886;28;20455;-70
2024/02/06 01:14:33;;;;;;;4.77;3.00;;;9.70;99.90;;;;;;4975440;28;20463;-70
2024/02/06 01:17:00;;;;;;;5.70;2.23;;;9.70;99.90;;;;;;4976338;28;21043;-70
2024/02/06 01:19:27;;;;;;;14.90;3.37;;;9.70;99.90;;;;;;4977157;28;20470;-70
2024/02/06 01:21:53;;;;;;;2.33;2.07;;;9.60;99.90;;;;;;4973689;28;20477;-70
2024/02/06 01:24:22;;;;;;;2.17;1.93;;;9.60;99.90;;;;;;4976996;28;20458;-71
2024/02/06 01:26:48;;;;;;;6.40;2.80;;;9.60;99.90;;;;;;4981825;28;20510;-71
2024/02/06 01:29:15;;;;;;;3.83;2.50;;;9.60;99.90;;;;;;4975016;28;20474;-71
2024/02/06 01:31:43;;;;;;;8.60;4.30;;;9.70;99.90;;;;;;4975320;28;20458;-71
2024/02/06 01:34:10;;;;;;;10.53;4.60;;;9.60;99.90;;;;;;4974448;28;22144;-71
2024/02/06 01:36:37;;;;;;;2.00;1.73;;;9.60;99.90;;;;;;4973912;28;20493;-71
2024/02/06 01:39:04;;;;;;;3.83;2.30;;;9.70;99.90;;;;;;4971957;28;20501;-70
2024/02/06 01:41:32;;;;;;;4.20;3.23;;;9.70;99.90;;;;;;4976069;28;20468;-71
2024/02/06 01:43:59;;;;;;;5.97;3.77;;;9.70;99.90;;;;;;4955243;28;20557;-71
2024/02/06 01:46:27;;;;;;;5.20;2.57;;;9.80;99.90;;;;;;4960634;28;20497;-71
2024/02/06 01:48:55;;;;;;;7.33;2.83;;;9.80;99.90;;;;;;4965903;28;20458;-71
2024/02/06 01:51:24;;;;;;;7.07;2.90;;;9.90;99.90;;;;;;4967055;28;21141;-71
2024/02/06 01:53:53;;;;;;;5.50;2.67;;;9.80;99.90;;;;;;4972883;28;20454;-71
2024/02/06 01:56:20;;;;;;;3.03;2.73;;;9.80;99.90;;;;;;4980252;28;21013;-71
2024/02/06 01:58:52;;;;;;;5.93;2.00;;;9.90;99.90;;;;;;4969763;28;20486;-71
2024/02/06 02:01:20;;;;;;;3.97;2.80;;;9.90;99.90;;;;;;4966159;28;20508;-71
2024/02/06 02:03:48;;;;;;;3.17;1.80;;;9.80;99.90;;;;;;4970603;28;20781;-71
2024/02/06 02:06:18;;;;;;;3.60;2.30;;;9.80;99.90;;;;;;4970811;28;20504;-71
2024/02/06 02:08:45;;;;;;;3.90;2.33;;;9.90;99.90;;;;;;4977494;28;20429;-70
2024/02/06 02:11:12;;;;;;;10.03;3.37;;;9.90;99.90;;;;;;5149106;23;20437;-70
2024/02/06 02:13:39;;;;;;;2.90;2.07;;;10.00;99.90;;;;;;4960062;28;20462;-70
2024/02/06 02:16:08;;;;;;;2.80;1.83;;;10.00;99.90;;;;;;4950382;28;20601;-70
2024/02/06 02:18:36;;;;;;;7.00;2.50;;;9.90;99.90;;;;;;4939844;28;20470;-70
2024/02/06 02:21:08;;;;;;;2.23;1.47;;;10.00;99.90;;;;;;4947147;28;21058;-70
2024/02/06 02:23:34;;;;;;;4.73;2.40;;;10.00;99.90;;;;;;4955133;28;20471;-70
2024/02/06 02:26:01;;;;;;;6.23;2.43;;;10.00;99.90;;;;;;4946490;28;20517;-70
2024/02/06 02:28:28;;;;;;;2.10;1.90;;;10.00;99.90;;;;;;4941631;28;20463;-70
2024/02/06 02:30:56;;;;;;;2.83;1.87;;;9.90;99.90;;;;;;4937019;28;20596;-70
2024/02/06 02:33:23;;;;;;;3.67;2.70;;;9.90;99.90;;;;;;4943270;28;20470;-70
2024/02/06 02:35:50;;;;;;;5.37;2.00;;;10.00;99.90;;;;;;4948228;28;20491;-70
2024/02/06 02:38:19;;;;;;;5.00;2.40;;;10.00;99.90;;;;;;4947661;28;20593;-70
2024/02/06 02:40:45;;;;;;;7.50;2.60;;;10.10;99.90;;;;;;4949732;28;20487;-70
2024/02/06 02:43:12;;;;;;;6.70;1.87;;;10.20;99.90;;;;;;4938714;28;20482;-70
2024/02/06 02:45:39;;;;;;;1.50;1.37;;;10.20;99.90;;;;;;4944337;28;20494;-70
2024/02/06 02:48:07;;;;;;;1.40;1.20;;;10.10;99.90;;;;;;4943856;28;20938;-70
2024/02/06 02:50:34;;;;;;;5.97;2.10;;;10.10;99.90;;;;;;4951429;28;20504;-70
2024/02/06 02:53:01;;;;;;;2.60;1.93;;;10.00;99.90;;;;;;4951481;28;20449;-70
2024/02/06 02:55:29;;;;;;;2.13;1.80;;;10.10;99.90;;;;;;4953908;28;21064;-70
2024/02/06 02:57:56;;;;;;;3.03;2.03;;;10.10;99.90;;;;;;4950484;28;20470;-70
2024/02/06 03:00:23;;;;;;;1.37;1.03;;;10.10;99.90;;;;;;4949373;28;20464;-70
2024/02/06 03:02:50;;;;;;;4.67;2.20;;;10.10;99.90;;;;;;4955144;28;20557;-70
2024/02/06 03:05:17;;;;;;;6.97;2.60;;;10.10;99.90;;;;;;4957596;28;20482;-70
2024/02/06 03:07:44;;;;;;;3.23;2.83;;;10.20;99.90;;;;;;4958736;28;20459;-70
2024/02/06 03:10:11;;;;;;;2.90;2.00;;;10.10;99.90;;;;;;4957551;28;20560;-70
2024/02/06 03:12:39;;;;;;;5.10;2.53;;;10.30;99.90;;;;;;4951413;28;20486;-70
2024/02/06 03:15:07;;;;;;;8.40;2.17;;;10.20;99.90;;;;;;4948622;28;20464;-70
2024/02/06 03:17:34;;;;;;;2.63;2.30;;;10.20;99.90;;;;;;4939878;28;21075;-70
2024/02/06 03:20:04;;;;;;;9.93;1.77;;;10.20;99.90;;;;;;4950897;28;20493;-70
2024/02/06 03:22:32;;;;;;;3.27;2.00;;;10.30;99.90;;;;;;4952124;28;21095;-70
2024/02/06 03:24:59;;;;;;;6.97;2.43;;;10.20;99.90;;;;;;4947052;28;20703;-70
2024/02/06 03:27:26;;;;;;;3.00;1.83;;;10.10;99.90;;;;;;4948363;28;20450;-70
2024/02/06 03:29:54;;;;;;;1.60;1.50;;;10.10;99.90;;;;;;4952084;28;20565;-70
2024/02/06 03:32:22;;;;;;;1.80;1.70;;;10.10;99.90;;;;;;4951288;28;20459;-70
2024/02/06 03:34:49;;;;;;;3.07;1.47;;;10.20;99.90;;;;;;4949982;28;20455;-70
2024/02/06 03:37:15;;;;;;;2.53;1.67;;;10.20;99.90;;;;;;4950871;28;20468;-70
2024/02/06 03:39:42;;;;;;;7.63;2.60;;;10.10;99.90;;;;;;4952671;28;20463;-70
2024/02/06 03:42:09;;;;;;;2.63;2.43;;;10.10;99.90;;;;;;4951446;28;20441;-70
2024/02/06 03:44:36;;;;;;;2.90;2.30;;;10.10;99.90;;;;;;4950106;28;20904;-70
2024/02/06 03:47:04;;;;;;;2.40;2.00;;;10.10;99.90;;;;;;4954722;28;20494;-70
2024/02/06 03:49:31;;;;;;;2.07;1.90;;;10.10;99.90;;;;;;4957436;28;20674;-71
2024/02/06 03:51:58;;;;;;;12.30;2.10;;;10.20;99.90;;;;;;4955453;28;20512;-70
2024/02/06 03:54:24;;;;;;;4.37;2.57;;;10.10;99.90;;;;;;4951502;28;20468;-70
2024/02/06 03:56:52;;;;;;;3.43;1.97;;;10.10;99.90;;;;;;4963015;28;20486;-70
2024/02/06 03:59:19;;;;;;;2.77;1.83;;;10.10;99.90;;;;;;4958367;28;20458;-70
2024/02/06 04:01:45;;;;;;;4.60;2.50;;;10.20;99.90;;;;;;4954943;28;20447;-70
2024/02/06 04:04:13;;;;;;;6.43;1.47;;;10.20;99.90;;;;;;4951049;28;20482;-71
2024/02/06 04:06:40;;;;;;;6.00;2.80;;;10.20;99.90;;;;;;4951667;28;20483;-70
2024/02/06 04:09:09;;;;;;;2.40;1.43;;;10.10;99.90;;;;;;4954975;28;20554;-70
2024/02/06 04:11:36;;;;;;;3.53;2.73;;;10.20;99.90;;;;;;4954175;28;20475;-70
2024/02/06 04:14:03;;;;;;;5.30;2.00;;;10.20;99.90;;;;;;4958122;28;20514;-70
2024/02/06 04:16:29;;;;;;;2.83;2.33;;;10.20;99.90;;;;;;4952809;28;20588;-70
2024/02/06 04:18:56;;;;;;;5.00;2.40;;;10.10;99.90;;;;;;4956808;28;21450;-70
2024/02/06 04:21:24;;;;;;;5.33;3.47;;;10.20;99.90;;;;;;4956086;28;20470;-70
2024/02/06 04:23:51;;;;;;;1.97;1.77;;;10.20;99.90;;;;;;4954243;28;20459;-70
2024/02/06 04:26:18;;;;;;;6.63;4.00;;;10.10;99.90;;;;;;4950509;28;20577;-70
2024/02/06 04:28:44;;;;;;;3.53;1.30;;;10.10;99.90;;;;;;4951325;28;20459;-70
2024/02/06 04:31:11;;;;;;;3.17;2.87;;;10.10;99.90;;;;;;4947717;28;20589;-70
2024/02/06 04:33:39;;;;;;;2.70;1.90;;;10.10;99.90;;;;;;4950063;28;20478;-70
2024/02/06 04:36:06;;;;;;;10.73;2.97;;;10.10;99.90;;;;;;4954075;28;20495;-70
2024/02/06 04:38:34;;;;;;;2.53;1.73;;;10.20;99.90;;;;;;4950937;28;20467;-70
2024/02/06 04:41:01;;;;;;;2.90;2.07;;;10.20;99.90;;;;;;4949683;28;20572;-70
2024/02/06 04:43:27;;;;;;;2.93;1.57;;;10.20;99.90;;;;;;4954150;28;20557;-70
2024/02/06 04:45:54;;;;;;;3.93;1.63;;;10.20;99.90;;;;;;4961465;28;20483;-70
2024/02/06 04:48:21;;;;;;;3.03;1.80;;;10.30;99.90;;;;;;4955155;28;20853;-70
2024/02/06 04:50:48;;;;;;;22.23;3.20;;;10.40;99.90;;;;;;4956895;28;20487;-70
2024/02/06 04:53:15;;;;;;;1.40;1.30;;;10.30;99.90;;;;;;4959278;28;20489;-70
2024/02/06 04:55:43;;;;;;;9.20;2.63;;;10.30;99.90;;;;;;4954614;28;21002;-70
2024/02/06 04:58:09;;;;;;;2.90;1.90;;;10.30;99.90;;;;;;4956898;28;20455;-70
2024/02/06 05:00:36;;;;;;;4.90;3.63;;;10.30;99.90;;;;;;4957474;28;20467;-70
2024/02/06 05:03:03;;;;;;;2.83;2.20;;;10.30;99.90;;;;;;4958932;28;20552;-70
2024/02/06 05:05:30;;;;;;;2.60;2.10;;;10.30;99.90;;;;;;4956237;28;20850;-70
2024/02/06 05:08:00;;;;;;;13.00;2.03;;;10.20;99.90;;;;;;4954762;28;20960;-70
2024/02/06 05:10:26;;;;;;;3.00;2.50;;;10.20;99.90;;;;;;4954024;28;20476;-70
2024/02/06 05:12:55;;;;;;;1.87;1.67;;;10.10;99.90;;;;;;4956570;28;20501;-69
2024/02/06 05:15:22;;;;;;;2.27;1.90;;;10.00;99.90;;;;;;4954253;28;21147;-69
2024/02/06 05:17:48;;;;;;;9.83;3.30;;;10.10;99.90;;;;;;4952983;28;20490;-70
2024/02/06 05:20:16;;;;;;;3.30;1.97;;;10.10;99.90;;;;;;4952169;28;20566;-70
2024/02/06 05:22:43;;;;;;;7.40;2.20;;;10.10;99.90;;;;;;4951007;28;21257;-70
2024/02/06 05:25:11;;;;;;;2.23;1.50;;;10.10;99.90;;;;;;4952517;28;20459;-70
2024/02/06 05:27:39;;;;;;;4.77;2.40;;;10.00;99.90;;;;;;4957240;28;20483;-71
2024/02/06 05:30:08;;;;;;;2.83;1.53;;;10.00;99.90;;;;;;4956611;28;20625;-70
2024/02/06 05:32:35;;;;;;;3.77;2.37;;;10.00;99.90;;;;;;4952675;28;21321;-70
2024/02/06 05:35:02;;;;;;;3.43;2.10;;;10.00;99.90;;;;;;4957599;28;20463;-70
2024/02/06 05:37:29;;;;;;;4.27;2.37;;;10.00;99.90;;;;;;4957452;28;20818;-70
2024/02/06 05:39:56;;;;;;;4.77;2.43;;;10.10;99.90;;;;;;4955639;28;20467;-70
2024/02/06 05:42:22;;;;;;;4.33;2.87;;;10.20;99.90;;;;;;4953231;28;20550;-70
2024/02/06 05:44:49;;;;;;;3.03;2.50;;;10.10;99.90;;;;;;4950073;28;20466;-70
2024/02/06 05:47:17;;;;;;;3.73;1.77;;;10.10;99.90;;;;;;4949377;28;20454;-70
2024/02/06 05:49:44;;;;;;;2.50;2.10;;;10.10;99.90;;;;;;4949026;28;20470;-70
2024/02/06 05:52:11;;;;;;;4.07;2.40;;;10.20;99.90;;;;;;4953681;28;20772;-70
2024/02/06 05:54:38;;;;;;;4.47;2.20;;;10.20;99.90;;;;;;4953838;28;20824;-70
2024/02/06 05:57:05;;;;;;;4.47;1.60;;;10.10;99.90;;;;;;4954275;28;20589;-70
2024/02/06 05:59:32;;;;;;;3.90;2.07;;;10.10;99.90;;;;;;4960696;28;20482;-70
2024/02/06 06:01:59;;;;;;;2.60;2.40;;;10.10;99.90;;;;;;4960581;28;20467;-70
2024/02/06 06:04:27;;;;;;;2.60;1.97;;;10.10;99.90;;;;;;4951392;28;20473;-70
2024/02/06 06:06:53;;;;;;;7.10;3.10;;;10.00;99.90;;;;;;4954692;28;20556;-70
2024/02/06 06:09:20;;;;;;;2.70;1.70;;;10.00;99.90;;;;;;4952775;28;20512;-70
2024/02/06 06:11:47;;;;;;;8.80;2.23;;;10.00;99.90;;;;;;4957192;28;20480;-70
2024/02/06 06:14:13;;;;;;;2.30;1.70;;;9.90;99.90;;;;;;4957242;28;20453;-71
2024/02/06 06:16:41;;;;;;;5.83;2.70;;;10.00;99.90;;;;;;4952979;28;20561;-71
2024/02/06 06:19:08;;;;;;;4.17;2.83;;;10.00;99.90;;;;;;4956814;28;20629;-71
2024/02/06 06:21:36;;;;;;;4.23;3.13;;;10.00;99.90;;;;;;4956831;28;21000;-71
2024/02/06 06:24:03;;;;;;;4.30;3.87;;;10.00;99.90;;;;;;4950977;28;20470;-71
2024/02/06 06:26:29;;;;;;;2.70;2.10;;;10.00;99.90;;;;;;4957579;28;20673;-71
2024/02/06 06:28:56;;;;;;;12.83;2.90;;;10.00;99.90;;;;;;4956856;28;20463;-70
2024/02/06 06:31:23;;;;;;;4.97;3.43;;;10.00;99.90;;;;;;4956491;28;20475;-71
2024/02/06 06:33:49;;;;;;;3.40;2.40;;;10.00;99.90;;;;;;4955906;28;20498;-70
2024/02/06 06:36:16;;;;;;;4.97;3.10;;;10.00;99.90;;;;;;4956543;28;20490;-71
2024/02/06 06:38:44;;;;;;;2.80;2.17;;;10.00;99.90;;;;;;4953415;28;20475;-71
2024/02/06 06:41:11;;;;;;;14.17;4.17;;;10.00;99.90;;;;;;4957254;28;20467;-70
2024/02/06 06:43:38;;;;;;;3.27;2.23;;;10.10;99.90;;;;;;4955594;28;20590;-70
2024/02/06 06:46:05;;;;;;;4.23;2.37;;;10.10;99.90;;;;;;4957140;28;20886;-70
2024/02/06 06:48:33;;;;;;;3.50;2.57;;;10.20;99.90;;;;;;4953422;28;20474;-70
2024/02/06 06:50:59;;;;;;;5.50;4.43;;;10.20;99.90;;;;;;4959524;28;20522;-70
2024/02/06 06:53:26;;;;;;;5.37;2.60;;;10.20;99.90;;;;;;4959660;28;20498;-70
2024/02/06 06:55:54;;;;;;;3.00;2.37;;;10.30;99.90;;;;;;4963789;28;20483;-69
2024/02/06 06:58:21;;;;;;;4.23;2.50;;;10.20;99.90;;;;;;4961357;28;20467;-69
2024/02/06 07:00:49;;;;;;;2.20;1.90;;;10.20;99.90;;;;;;4961072;28;20511;-69
2024/02/06 07:03:15;;;;;;;6.00;2.40;;;10.20;99.90;;;;;;4961721;28;22744;-70
2024/02/06 07:05:42;;;;;;;4.37;4.07;;;10.20;99.90;;;;;;4958471;28;20487;-70
2024/02/06 07:08:09;;;;;;;2.93;2.10;;;10.30;99.90;;;;;;4960908;28;20820;-70
2024/02/06 07:10:35;;;;;;;13.13;4.37;;;10.30;99.90;;;;;;4959129;28;20478;-70
2024/02/06 07:13:04;;;;;;;4.43;2.23;;;10.30;99.90;;;;;;4961810;28;20506;-70
2024/02/06 07:15:30;;;;;;;5.37;4.17;;;10.30;99.90;;;;;;4954854;28;20501;-70
2024/02/06 07:17:57;;;;;;;4.70;2.10;;;10.30;99.90;;;;;;4955292;28;20494;-69
2024/02/06 07:20:24;;;;;;;8.00;2.53;;;10.30;99.90;;;;;;4957033;28;20910;-70
2024/02/06 07:22:52;;;;;;;4.90;2.47;;;10.40;99.90;;;;;;4960121;28;20518;-70
2024/02/06 07:25:19;;;;;;;4.37;1.93;;;10.40;99.90;;;;;;4957134;28;20487;-70
2024/02/06 07:27:45;;;;;;;3.33;3.00;;;10.40;99.90;;;;;;4962604;28;20478;-70
2024/02/06 07:30:15;;;;;;;5.90;4.17;;;10.40;99.90;;;;;;4959107;28;20982;-70
2024/02/06 07:32:41;;;;;;;5.30;3.90;;;10.50;99.90;;;;;;4955354;28;20614;-70
2024/02/06 07:35:09;;;;;;;5.73;2.23;;;10.40;99.90;;;;;;4956854;28;20467;-70
2024/02/06 07:37:37;;;;;;;5.17;3.73;;;10.40;99.90;;;;;;4958746;28;20883;-70
2024/02/06 07:40:05;;;;;;;2.90;2.47;;;10.30;99.90;;;;;;4960052;28;20459;-70
2024/02/06 07:42:32;;;;;;;3.37;1.93;;;10.40;99.90;;;;;;4956923;28;20455;-70
2024/02/06 07:44:59;;;;;;;6.73;2.40;;;10.40;99.90;;;;;;4964311;28;20438;-70
2024/02/06 07:47:27;;;;;;;2.13;1.87;;;10.40;99.90;;;;;;4962547;28;20475;-70
2024/02/06 07:49:54;;;;;;;3.33;2.37;;;10.40;99.90;;;;;;4965741;28;20471;-70
2024/02/06 07:52:20;;;;;;;5.30;2.70;;;10.40;99.90;;;;;;4959114;28;20486;-70
2024/02/06 07:54:47;;;;;;;4.00;1.83;;;10.40;99.90;;;;;;4960812;28;20582;-69
2024/02/06 07:57:14;;;;;;;4.13;2.03;;;10.40;99.90;;;;;;4960419;28;20515;-69
2024/02/06 07:59:41;;;;;;;8.93;4.13;;;10.30;99.90;;;;;;4961606;28;21055;-69
2024/02/06 08:02:07;;;;;;;4.63;3.23;;;10.40;99.90;;;;;;4958963;28;20551;-70
2024/02/06 08:04:35;;;;;;;5.17;3.57;;;10.40;99.90;;;;;;4960836;28;20467;-70
2024/02/06 08:07:02;;;;;;;9.30;2.57;;;10.50;99.90;;;;;;4961628;28;20490;-70
2024/02/06 08:09:29;;;;;;;2.57;2.37;;;10.50;99.90;;;;;;4961491;28;20794;-70
2024/02/06 08:11:56;;;;;;;2.13;1.93;;;10.50;99.90;;;;;;4959382;28;20490;-71
2024/02/06 08:14:22;;;;;;;5.23;4.27;;;10.40;99.90;;;;;;4959331;28;20467;-71
2024/02/06 08:16:50;;;;;;;3.47;2.77;;;10.40;99.90;;;;;;4958667;28;20829;-70
2024/02/06 08:19:16;;;;;;;4.87;2.60;;;10.40;99.90;;;;;;4957450;28;20912;-71
2024/02/06 08:21:44;;;;;;;3.10;2.13;;;10.40;99.90;;;;;;4954892;28;20570;-70
2024/02/06 08:24:11;;;;;;;3.37;1.67;;;10.50;99.90;;;;;;4956313;28;20470;-70
2024/02/06 08:26:38;;;;;;;4.87;3.33;;;10.50;99.90;;;;;;4957546;28;20822;-71
2024/02/06 08:29:05;;;;;;;1.53;1.43;;;10.50;99.90;;;;;;4960503;28;20574;-71
2024/02/06 08:31:32;;;;;;;6.57;2.40;;;10.50;99.90;;;;;;4948135;28;21672;-71
2024/02/06 08:33:59;;;;;;;3.10;2.80;;;10.50;99.90;;;;;;4955746;28;20498;-70
2024/02/06 08:36:26;;;;;;;6.37;2.73;;;10.50;99.90;;;;;;4954719;28;20491;-70
2024/02/06 08:38:54;;;;;;;3.97;2.37;;;10.40;99.90;;;;;;4956825;28;20467;-71
2024/02/06 08:41:22;;;;;;;6.67;2.27;;;10.50;99.90;;;;;;4955373;28;20460;-70
2024/02/06 08:43:49;;;;;;;4.67;2.50;;;10.40;99.90;;;;;;4955466;28;20471;-71
2024/02/06 08:46:16;;;;;;;11.77;3.97;;;10.50;99.90;;;;;;4959039;28;20487;-70
2024/02/06 08:48:42;;;;;;;4.47;2.63;;;10.50;99.90;;;;;;4958523;28;20471;-71
2024/02/06 08:51:10;;;;;;;4.33;2.03;;;10.50;99.90;;;;;;4953386;28;20466;-71
2024/02/06 08:53:37;;;;;;;6.23;3.43;;;10.50;99.90;;;;;;4959336;28;20494;-71
2024/02/06 08:56:07;;;;;;;3.67;2.10;;;10.60;99.90;;;;;;4959573;28;20517;-70
2024/02/06 08:58:36;;;;;;;5.67;2.80;;;10.50;99.90;;;;;;4960133;28;20503;-70
2024/02/06 09:01:03;;;;;;;5.97;3.40;;;10.60;99.90;;;;;;4958315;28;20558;-70
2024/02/06 09:03:30;;;;;;;6.27;3.97;;;10.60;99.90;;;;;;4958167;28;20549;-71
2024/02/06 09:05:57;;;;;;;3.00;2.17;;;10.70;99.90;;;;;;4958943;28;20550;-71
2024/02/06 09:08:24;;;;;;;2.87;2.23;;;10.60;99.90;;;;;;4958377;28;20459;-71
2024/02/06 09:10:50;;;;;;;2.87;2.30;;;10.60;99.90;;;;;;4959785;28;20571;-71
2024/02/06 09:13:21;;;;;;;2.87;1.70;;;10.70;99.90;;;;;;4952649;28;20506;-71
2024/02/06 09:15:48;;;;;;;3.90;3.47;;;10.80;99.90;;;;;;4952621;28;20525;-70
2024/02/06 09:18:15;;;;;;;5.00;2.23;;;10.90;99.90;;;;;;4957528;28;20490;-70
2024/02/06 09:20:43;;;;;;;8.67;3.13;;;10.90;99.90;;;;;;4954401;28;20803;-71
2024/02/06 09:23:09;;;;;;;3.93;1.70;;;10.90;99.90;;;;;;4957047;28;20926;-71
2024/02/06 09:25:36;;;;;;;4.10;1.60;;;10.90;99.90;;;;;;4958713;28;20610;-71
2024/02/06 09:28:05;;;;;;;4.53;2.93;;;11.00;99.90;;;;;;4955680;28;20970;-71
2024/02/06 09:30:34;;;;;;;5.20;2.20;;;11.00;99.90;;;;;;4960648;28;20541;-71
2024/02/06 09:33:01;;;;;;;3.60;2.10;;;10.90;99.90;;;;;;4956011;28;20458;-71
2024/02/06 09:35:28;;;;;;;3.40;2.60;;;11.00;99.90;;;;;;4955193;28;20574;-71
2024/02/06 09:37:54;;;;;;;6.67;3.27;;;10.90;99.90;;;;;;4949638;28;20987;-71
2024/02/06 09:40:21;;;;;;;1.87;1.63;;;10.90;99.90;;;;;;4952309;28;20468;-71
2024/02/06 09:42:49;;;;;;;3.00;2.13;;;11.00;99.90;;;;;;4958122;28;20458;-70
2024/02/06 09:45:16;;;;;;;7.07;2.20;;;11.00;99.90;;;;;;4958263;28;20485;-71
2024/02/06 09:47:44;;;;;;;2.10;1.57;;;11.10;99.90;;;;;;4957593;28;20482;-71
2024/02/06 09:50:12;;;;;;;2.20;1.30;;;11.10;99.90;;;;;;4962055;28;20471;-71
2024/02/06 09:52:41;;;;;;;2.73;2.40;;;11.20;99.90;;;;;;4953256;28;20557;-70
2024/02/06 09:55:12;;;;;;;4.03;2.87;;;11.30;99.90;;;;;;4957724;28;21008;-71
2024/02/06 09:57:39;;;;;;;3.87;2.23;;;11.30;99.90;;;;;;4951824;28;20839;-71
2024/02/06 10:00:09;;;;;;;5.53;2.57;;;11.30;99.90;;;;;;4955576;28;20812;-71
2024/02/06 10:02:41;;;;;;;2.23;1.90;;;11.10;99.90;;;;;;4953651;28;20459;-70
2024/02/06 10:05:13;;;;;;;3.47;2.40;;;11.10;99.90;;;;;;4956527;28;20579;-71
2024/02/06 10:07:40;;;;;;;5.50;2.33;;;10.80;99.90;;;;;;4954367;28;20459;-70
2024/02/06 10:10:10;;;;;;;2.00;1.83;;;10.70;99.90;;;;;;4950128;28;20846;-71
2024/02/06 10:12:37;;;;;;;4.30;2.07;;;10.70;99.90;;;;;;4913231;28;1233307;-71
2024/02/06 10:15:04;;;;;;;4.03;2.83;;;10.50;99.90;;;;;;4952578;28;20505;-70
2024/02/06 10:17:31;;;;;;;5.17;2.57;;;10.40;99.90;;;;;;4953962;28;20471;-70
2024/02/06 10:20:06;;;;;;;2.40;2.03;;;10.40;99.90;;;;;;4955209;28;20911;-71
2024/02/06 10:22:34;;;;;;;5.17;2.20;;;10.30;99.90;;;;;;4952009;28;20464;-71
2024/02/06 10:25:01;;;;;;;3.70;3.40;;;10.30;99.90;;;;;;4955727;28;20571;-70
2024/02/06 10:27:28;;;;;;;2.73;2.40;;;10.20;99.90;;;;;;4953320;28;20577;-70
2024/02/06 10:29:59;;;;;;;3.67;3.30;;;10.10;99.90;;;;;;4957338;28;20807;-70
2024/02/06 10:32:31;;;;;;;5.47;2.80;;;10.10;99.90;;;;;;4954374;28;20605;-70
2024/02/06 10:35:02;;;;;;;7.30;3.43;;;10.10;99.90;;;;;;4959945;28;20541;-71
2024/02/06 10:37:30;;;;;;;5.83;3.50;;;10.20;99.90;;;;;;4955452;28;20467;-71
2024/02/06 10:39:59;;;;;;;3.93;2.60;;;10.30;99.90;;;;;;4953282;28;20481;-71
2024/02/06 10:42:26;;;;;;;2.90;2.40;;;10.40;99.90;;;;;;4952652;28;20496;-72
2024/02/06 10:44:56;;;;;;;4.50;2.40;;;10.40;99.90;;;;;;4955201;28;20463;-70
2024/02/06 10:47:22;;;;;;;4.73;3.43;;;10.40;99.90;;;;;;4950019;28;20547;-70
2024/02/06 10:50:00;;;;;;;2.50;2.30;;;10.50;99.90;;;;;;4945700;28;20475;-70
2024/02/06 10:52:26;;;;;;;5.37;2.50;;;10.50;99.90;;;;;;4952753;28;20467;-71
2024/02/06 10:54:53;;;;;;;3.63;3.33;;;10.50;99.90;;;;;;4954795;28;20981;-71
2024/02/06 10:57:24;;;;;;;3.97;2.30;;;10.50;99.90;;;;;;4960358;28;20531;-71
2024/02/06 11:00:07;;;;;;;5.93;3.90;;;10.40;99.90;;;;;;4957654;28;20437;-70
2024/02/06 11:02:35;;;;;;;4.50;2.87;;;10.40;99.90;;;;;;4959317;28;20482;-71
2024/02/06 11:05:11;;;;;;;3.10;2.77;;;10.50;99.90;;;;;;4954504;28;20475;-71
2024/02/06 11:07:47;;;;;;;3.53;3.00;;;10.50;99.90;;;;;;4958823;28;20470;-70
2024/02/06 11:10:19;;;;;;;5.07;2.50;;;10.50;99.90;;;;;;4955546;28;20467;-71
2024/02/06 11:12:49;;;;;;;2.97;2.03;;;10.60;99.90;;;;;;4957942;28;20483;-71
2024/02/06 11:15:18;;;;;;;5.13;2.00;;;10.60;99.90;;;;;;4957150;28;20962;-71
2024/02/06 11:17:47;;;;;;;2.97;2.10;;;10.60;99.90;;;;;;4957037;28;20857;-71
2024/02/06 11:20:16;;;;;;;4.17;2.57;;;10.60;99.90;;;;;;4954742;28;20464;-71
2024/02/06 11:22:44;;;;;;;22.90;4.00;;;10.70;99.90;;;;;;4953821;28;20476;-71
2024/02/06 11:25:15;;;;;;;2.40;2.20;;;10.60;99.90;;;;;;4957985;28;21228;-71
2024/02/06 11:27:44;;;;;;;3.87;3.47;;;10.70;99.90;;;;;;4957989;28;20550;-71
2024/02/06 11:30:14;;;;;;;5.53;2.90;;;10.70;99.90;;;;;;4959390;28;20526;-71
2024/02/06 11:32:41;;;;;;;5.93;3.27;;;10.80;99.90;;;;;;4956011;28;20990;-71
2024/02/06 11:35:08;;;;;;;3.60;2.53;;;10.80;99.90;;;;;;4953305;28;20464;-72
2024/02/06 11:37:35;;;;;;;5.77;2.70;;;10.80;99.90;;;;;;4952426;28;20601;-71
2024/02/06 11:40:06;;;;;;;3.40;1.90;;;10.70;99.90;;;;;;4956925;28;21050;-71
2024/02/06 11:42:34;;;;;;;3.67;2.93;;;10.60;99.90;;;;;;4952440;28;20468;-71
2024/02/06 11:45:09;;;;;;;4.43;2.77;;;10.60;99.90;;;;;;4957852;28;20869;-71
2024/02/06 11:47:38;;;;;;;7.33;2.20;;;10.80;99.90;;;;;;4952402;28;20802;-71
2024/02/06 11:50:09;;;;;;;3.60;2.73;;;10.80;99.90;;;;;;4948692;28;20495;-71
2024/02/06 11:52:36;;;;;;;3.43;2.80;;;10.90;99.90;;;;;;4953014;28;20558;-71
2024/02/06 11:55:04;;;;;;;8.70;3.80;;;11.00;99.90;;;;;;4960165;28;20487;-71
2024/02/06 11:57:31;;;;;;;4.30;2.53;;;11.00;99.90;;;;;;4960003;28;20475;-71
2024/02/06 11:59:58;;;;;;;3.47;2.03;;;11.10;99.90;;;;;;4950181;28;20470;-72
2024/02/06 12:02:25;;;;;;;3.93;2.00;;;11.00;99.90;;;;;;4956381;28;20474;-71
2024/02/06 12:05:02;;;;;;;2.13;1.93;;;10.90;99.90;;;;;;4954044;28;20475;-71
2024/02/06 12:07:28;;;;;;;2.83;2.60;;;11.00;99.90;;;;;;4953973;28;20481;-71
2024/02/06 12:09:55;;;;;;;6.97;2.57;;;10.80;99.90;;;;;;4945755;28;20468;-71
2024/02/06 12:12:22;;;;;;;3.93;2.30;;;10.80;99.90;;;;;;4958703;28;20479;-71
2024/02/06 12:14:51;;;;;;;7.00;3.67;;;10.80;99.90;;;;;;4959282;28;20483;-73
2024/02/06 12:17:18;;;;;;;5.30;2.43;;;10.80;99.90;;;;;;4958601;28;20506;-71
2024/02/06 12:19:45;;;;;;;4.90;2.80;;;10.80;99.90;;;;;;4958002;28;20475;-71
2024/02/06 12:22:14;;;;;;;2.87;2.60;;;10.70;99.90;;;;;;4951921;28;20940;-71
2024/02/06 12:24:41;;;;;;;4.80;3.43;;;10.70;99.90;;;;;;4957177;28;20471;-71
2024/02/06 12:27:09;;;;;;;3.30;2.47;;;10.70;99.90;;;;;;4953800;28;20505;-71
2024/02/06 12:29:37;;;;;;;4.27;2.90;;;10.80;99.90;;;;;;4960024;28;20629;-71
2024/02/06 12:32:04;;;;;;;9.60;3.03;;;10.80;99.90;;;;;;4954368;28;20467;-71
2024/02/06 12:34:32;;;;;;;2.47;2.23;;;10.80;99.90;;;;;;4960603;28;20490;-71
2024/02/06 12:36:59;;;;;;;3.40;2.83;;;10.70;99.90;;;;;;4955568;28;21130;-71
2024/02/06 12:39:30;;;;;;;3.07;2.60;;;10.70;99.90;;;;;;4959954;28;20470;-72
2024/02/06 12:42:01;;;;;;;1.67;1.57;;;10.60;99.90;;;;;;4954988;28;20470;-71
2024/02/06 12:44:28;;;;;;;6.50;3.80;;;10.70;99.90;;;;;;4953158;28;20472;-71
2024/02/06 12:46:57;;;;;;;3.97;2.27;;;10.70;99.90;;;;;;4951009;28;20498;-71
2024/02/06 12:49:26;;;;;;;3.20;2.80;;;10.80;99.90;;;;;;4960412;28;20489;-72